sensor_id;sensor_type;location;lat;lon;timestamp;pressure;altitude;pressure_sealevel;temperature;humidity
21779;BME280;11050;52.222;20.916;2023-02-02T00:01:27;98878.22;;;3.79;100.00
21779;BME280;11050;52.222;20.916;2023-02-02T00:03:53;98859.06;;;3.86;100.00
21779;BME280;11050;52.222;20.916;2023-02-02T00:06:22;98871.47;;;3.82;100.00
21779;BME280;11050;52.222;20.916;2023-02-02T00:08:49;98856.47;;;3.79;100.00
21779;BME280;11050;52.222;20.916;2023-02-02T00:11:17;98868.56;;;3.72;100.00
21779;BME280;11050;52.222;20.916;2023-02-02T00:13:43;98864.06;;;3.77;100.00
21779;BME280;11050;52.222;20.916;2023-02-02T00:18:58;98870.66;;;3.81;100.00
21779;BME280;11050;52.222;20.916;2023-02-02T00:21:25;98860.75;;;3.75;100.00
21779;BME280;11050;52.222;20.916;2023-02-02T00:23:51;98854.34;;;3.81;100.00
21779;BME280;11050;52.222;20.916;2023-02-02T00:26:18;98860.59;;;3.82;100.00
21779;BME280;11050;52.222;20.916;2023-02-02T00:28:45;98857.91;;;3.82;100.00
21779;BME280;11050;52.222;20.916;2023-02-02T00:31:11;98852.38;;;3.77;100.00
21779;BME280;11050;52.222;20.916;2023-02-02T00:33:37;98848.91;;;3.81;100.00
21779;BME280;11050;52.222;20.916;2023-02-02T00:36:03;98845.88;;;3.78;100.00
21779;BME280;11050;52.222;20.916;2023-02-02T00:38:30;98860.53;;;3.77;100.00
21779;BME280;11050;52.222;20.916;2023-02-02T00:40:56;98855.75;;;3.84;100.00
21779;BME280;11050;52.222;20.916;2023-02-02T00:43:22;98854.59;;;3.80;100.00
21779;BME280;11050;52.222;20.916;2023-02-02T00:45:48;98859.19;;;3.79;100.00
21779;BME280;11050;52.222;20.916;2023-02-02T00:48:14;98852.53;;;3.87;100.00
21779;BME280;11050;52.222;20.916;2023-02-02T00:50:40;98850.56;;;3.82;100.00
21779;BME280;11050;52.222;20.916;2023-02-02T00:53:06;98852.13;;;3.78;100.00
21779;BME280;11050;52.222;20.916;2023-02-02T00:55:31;98849.16;;;3.80;100.00
21779;BME280;11050;52.222;20.916;2023-02-02T00:57:57;98852.28;;;3.88;100.00
21779;BME280;11050;52.222;20.916;2023-02-02T01:00:25;98855.44;;;3.80;100.00
21779;BME280;11050;52.222;20.916;2023-02-02T01:02:53;98853.59;;;3.69;100.00
21779;BME280;11050;52.222;20.916;2023-02-02T01:05:20;98852.84;;;3.57;100.00
21779;BME280;11050;52.222;20.916;2023-02-02T01:07:47;98872.88;;;3.40;100.00
21779;BME280;11050;52.222;20.916;2023-02-02T01:10:17;98852.31;;;3.16;100.00
21779;BME280;11050;52.222;20.916;2023-02-02T01:12:43;98854.28;;;2.92;100.00
21779;BME280;11050;52.222;20.916;2023-02-02T01:15:11;98849.59;;;2.76;100.00
21779;BME280;11050;52.222;20.916;2023-02-02T01:17:37;98844.09;;;2.71;100.00
21779;BME280;11050;52.222;20.916;2023-02-02T01:20:05;98846.44;;;2.67;100.00
21779;BME280;11050;52.222;20.916;2023-02-02T01:22:31;98847.16;;;2.63;100.00
21779;BME280;11050;52.222;20.916;2023-02-02T01:24:59;98838.91;;;2.58;100.00
21779;BME280;11050;52.222;20.916;2023-02-02T01:27:24;98841.50;;;2.53;100.00
21779;BME280;11050;52.222;20.916;2023-02-02T01:29:50;98831.03;;;2.56;100.00
21779;BME280;11050;52.222;20.916;2023-02-02T01:32:16;98828.44;;;2.50;100.00
21779;BME280;11050;52.222;20.916;2023-02-02T01:34:42;98833.25;;;2.59;100.00
21779;BME280;11050;52.222;20.916;2023-02-02T01:37:08;98833.00;;;2.61;100.00
21779;BME280;11050;52.222;20.916;2023-02-02T01:39:35;98836.06;;;2.64;100.00
21779;BME280;11050;52.222;20.916;2023-02-02T01:42:02;98841.81;;;2.68;100.00
21779;BME280;11050;52.222;20.916;2023-02-02T01:47:47;98845.84;;;2.77;100.00
21779;BME280;11050;52.222;20.916;2023-02-02T01:50:16;98856.53;;;2.83;100.00
21779;BME280;11050;52.222;20.916;2023-02-02T01:52:46;98850.59;;;2.98;100.00
21779;BME280;11050;52.222;20.916;2023-02-02T01:55:17;98841.53;;;2.92;100.00
21779;BME280;11050;52.222;20.916;2023-02-02T01:58:09;98847.50;;;3.06;100.00
21779;BME280;11050;52.222;20.916;2023-02-02T02:00:35;98846.06;;;3.15;100.00
21779;BME280;11050;52.222;20.916;2023-02-02T02:03:15;98846.97;;;3.21;100.00
21779;BME280;11050;52.222;20.916;2023-02-02T02:05:59;98851.44;;;3.27;100.00
21779;BME280;11050;52.222;20.916;2023-02-02T02:08:32;98850.38;;;3.28;100.00
21779;BME280;11050;52.222;20.916;2023-02-02T02:10:59;98851.94;;;3.24;100.00
21779;BME280;11050;52.222;20.916;2023-02-02T02:13:27;98844.81;;;3.34;100.00
21779;BME280;11050;52.222;20.916;2023-02-02T02:23:39;98849.66;;;3.32;100.00
21779;BME280;11050;52.222;20.916;2023-02-02T02:36:10;98846.59;;;3.29;100.00
21779;BME280;11050;52.222;20.916;2023-02-02T02:38:58;98847.56;;;3.23;100.00
21779;BME280;11050;52.222;20.916;2023-02-02T02:41:38;98845.59;;;3.18;100.00
21779;BME280;11050;52.222;20.916;2023-02-02T02:44:11;98862.84;;;3.12;100.00
21779;BME280;11050;52.222;20.916;2023-02-02T02:46:39;98849.06;;;3.02;100.00
21779;BME280;11050;52.222;20.916;2023-02-02T02:49:09;98854.47;;;3.02;100.00
21779;BME280;11050;52.222;20.916;2023-02-02T02:51:49;98859.53;;;3.10;100.00
21779;BME280;11050;52.222;20.916;2023-02-02T02:54:29;98848.78;;;3.15;100.00
21779;BME280;11050;52.222;20.916;2023-02-02T02:57:07;98854.91;;;3.22;100.00
21779;BME280;11050;52.222;20.916;2023-02-02T03:00:18;98859.91;;;3.30;100.00
21779;BME280;11050;52.222;20.916;2023-02-02T03:06:07;98860.00;;;3.47;100.00
21779;BME280;11050;52.222;20.916;2023-02-02T03:08:44;98851.09;;;3.51;100.00
21779;BME280;11050;52.222;20.916;2023-02-02T03:11:12;98853.34;;;3.54;100.00
21779;BME280;11050;52.222;20.916;2023-02-02T03:13:40;98846.09;;;3.60;100.00
21779;BME280;11050;52.222;20.916;2023-02-02T03:16:09;98852.53;;;3.70;100.00
21779;BME280;11050;52.222;20.916;2023-02-02T03:18:35;98845.94;;;3.66;100.00
21779;BME280;11050;52.222;20.916;2023-02-02T03:21:02;98842.75;;;3.69;100.00
21779;BME280;11050;52.222;20.916;2023-02-02T03:23:28;98849.88;;;3.75;100.00
21779;BME280;11050;52.222;20.916;2023-02-02T03:25:54;98852.94;;;3.79;100.00
21779;BME280;11050;52.222;20.916;2023-02-02T03:28:23;98850.56;;;3.82;100.00
21779;BME280;11050;52.222;20.916;2023-02-02T03:30:50;98852.53;;;3.87;100.00
21779;BME280;11050;52.222;20.916;2023-02-02T03:33:18;98856.16;;;3.93;100.00
21779;BME280;11050;52.222;20.916;2023-02-02T03:35:44;98858.88;;;3.93;100.00
21779;BME280;11050;52.222;20.916;2023-02-02T03:38:10;98848.59;;;3.95;100.00
21779;BME280;11050;52.222;20.916;2023-02-02T03:40:37;98856.25;;;3.98;100.00
21779;BME280;11050;52.222;20.916;2023-02-02T03:43:04;98854.53;;;3.92;100.00
21779;BME280;11050;52.222;20.916;2023-02-02T03:45:30;98842.00;;;3.91;100.00
21779;BME280;11050;52.222;20.916;2023-02-02T03:47:57;98864.88;;;3.95;100.00
21779;BME280;11050;52.222;20.916;2023-02-02T03:50:23;98851.31;;;3.95;100.00
21779;BME280;11050;52.222;20.916;2023-02-02T03:52:50;98852.38;;;3.94;100.00
21779;BME280;11050;52.222;20.916;2023-02-02T03:55:16;98871.16;;;3.95;100.00
21779;BME280;11050;52.222;20.916;2023-02-02T03:57:41;98861.13;;;3.96;100.00
21779;BME280;11050;52.222;20.916;2023-02-02T04:00:08;98853.63;;;4.03;100.00
21779;BME280;11050;52.222;20.916;2023-02-02T04:02:34;98859.13;;;4.08;100.00
21779;BME280;11050;52.222;20.916;2023-02-02T04:05:00;98854.94;;;4.00;100.00
21779;BME280;11050;52.222;20.916;2023-02-02T04:07:25;98852.53;;;4.04;100.00
21779;BME280;11050;52.222;20.916;2023-02-02T04:09:51;98855.94;;;4.11;100.00
21779;BME280;11050;52.222;20.916;2023-02-02T04:12:17;98847.53;;;4.12;100.00
21779;BME280;11050;52.222;20.916;2023-02-02T04:14:43;98850.56;;;4.16;100.00
21779;BME280;11050;52.222;20.916;2023-02-02T04:17:08;98851.53;;;4.10;100.00
21779;BME280;11050;52.222;20.916;2023-02-02T04:19:34;98849.41;;;4.12;100.00
21779;BME280;11050;52.222;20.916;2023-02-02T04:22:00;98852.19;;;4.17;100.00
21779;BME280;11050;52.222;20.916;2023-02-02T04:24:25;98848.94;;;4.15;100.00
21779;BME280;11050;52.222;20.916;2023-02-02T04:26:51;98847.44;;;4.24;100.00
21779;BME280;11050;52.222;20.916;2023-02-02T04:29:17;98847.00;;;4.15;100.00
21779;BME280;11050;52.222;20.916;2023-02-02T04:31:42;98857.97;;;4.20;100.00
21779;BME280;11050;52.222;20.916;2023-02-02T04:34:08;98865.06;;;4.21;100.00
21779;BME280;11050;52.222;20.916;2023-02-02T04:36:34;98853.13;;;4.22;100.00
21779;BME280;11050;52.222;20.916;2023-02-02T04:39:00;98857.16;;;4.20;100.00
21779;BME280;11050;52.222;20.916;2023-02-02T04:41:25;98862.00;;;4.18;100.00
21779;BME280;11050;52.222;20.916;2023-02-02T04:43:51;98851.81;;;4.08;100.00
21779;BME280;11050;52.222;20.916;2023-02-02T04:46:18;98875.28;;;4.14;100.00
21779;BME280;11050;52.222;20.916;2023-02-02T04:48:43;98859.88;;;4.20;100.00
21779;BME280;11050;52.222;20.916;2023-02-02T04:51:13;98859.81;;;4.15;100.00
21779;BME280;11050;52.222;20.916;2023-02-02T04:53:40;98858.13;;;4.14;100.00
21779;BME280;11050;52.222;20.916;2023-02-02T04:56:10;98856.25;;;4.14;100.00
21779;BME280;11050;52.222;20.916;2023-02-02T04:58:37;98851.41;;;4.16;100.00
21779;BME280;11050;52.222;20.916;2023-02-02T05:01:14;98852.19;;;4.17;100.00
21779;BME280;11050;52.222;20.916;2023-02-02T05:03:40;98850.00;;;4.14;100.00
21779;BME280;11050;52.222;20.916;2023-02-02T05:06:06;98846.53;;;4.18;100.00
21779;BME280;11050;52.222;20.916;2023-02-02T05:08:34;98853.78;;;4.13;100.00
21779;BME280;11050;52.222;20.916;2023-02-02T05:11:05;98851.28;;;4.11;100.00
21779;BME280;11050;52.222;20.916;2023-02-02T05:13:31;98851.06;;;4.13;100.00
21779;BME280;11050;52.222;20.916;2023-02-02T05:15:57;98859.13;;;4.08;100.00
21779;BME280;11050;52.222;20.916;2023-02-02T05:18:22;98869.25;;;4.12;100.00
21779;BME280;11050;52.222;20.916;2023-02-02T05:20:50;98855.34;;;4.09;100.00
21779;BME280;11050;52.222;20.916;2023-02-02T05:23:18;98858.47;;;4.01;100.00
21779;BME280;11050;52.222;20.916;2023-02-02T05:25:43;98854.25;;;4.10;100.00
21779;BME280;11050;52.222;20.916;2023-02-02T05:28:10;98862.53;;;4.15;100.00
21779;BME280;11050;52.222;20.916;2023-02-02T05:30:38;98858.13;;;4.14;100.00
21779;BME280;11050;52.222;20.916;2023-02-02T05:33:04;98851.28;;;4.11;100.00
21779;BME280;11050;52.222;20.916;2023-02-02T05:35:30;98853.22;;;4.11;100.00
21779;BME280;11050;52.222;20.916;2023-02-02T05:37:56;98858.72;;;4.16;100.00
21779;BME280;11050;52.222;20.916;2023-02-02T05:40:22;98856.72;;;4.11;100.00
21779;BME280;11050;52.222;20.916;2023-02-02T05:42:47;98861.44;;;4.16;100.00
21779;BME280;11050;52.222;20.916;2023-02-02T05:45:14;98856.00;;;4.16;100.00
21779;BME280;11050;52.222;20.916;2023-02-02T05:47:40;98855.16;;;4.15;100.00
21779;BME280;11050;52.222;20.916;2023-02-02T05:50:06;98862.59;;;4.20;100.00
21779;BME280;11050;52.222;20.916;2023-02-02T05:52:34;98853.28;;;4.16;100.00
21779;BME280;11050;52.222;20.916;2023-02-02T05:55:01;98856.66;;;4.23;100.00
21779;BME280;11050;52.222;20.916;2023-02-02T05:57:27;98861.34;;;4.27;100.00
21779;BME280;11050;52.222;20.916;2023-02-02T05:59:53;98859.38;;;4.23;100.00
21779;BME280;11050;52.222;20.916;2023-02-02T06:02:19;98850.97;;;4.24;100.00
21779;BME280;11050;52.222;20.916;2023-02-02T06:04:45;98847.44;;;4.24;100.00
21779;BME280;11050;52.222;20.916;2023-02-02T06:07:11;98854.50;;;4.25;100.00
21779;BME280;11050;52.222;20.916;2023-02-02T06:09:37;98858.31;;;4.24;100.00
21779;BME280;11050;52.222;20.916;2023-02-02T06:12:04;98861.41;;;4.32;100.00
21779;BME280;11050;52.222;20.916;2023-02-02T06:14:30;98852.38;;;4.27;100.00
21779;BME280;11050;52.222;20.916;2023-02-02T06:16:56;98854.03;;;4.28;100.00
21779;BME280;11050;52.222;20.916;2023-02-02T06:19:22;98850.41;;;4.22;100.00
21779;BME280;11050;52.222;20.916;2023-02-02T06:21:47;98855.66;;;4.29;100.00
21779;BME280;11050;52.222;20.916;2023-02-02T06:24:13;98851.38;;;4.33;100.00
21779;BME280;11050;52.222;20.916;2023-02-02T06:26:39;98848.66;;;4.33;100.00
21779;BME280;11050;52.222;20.916;2023-02-02T06:29:05;98854.09;;;4.33;100.00
21779;BME280;11050;52.222;20.916;2023-02-02T06:31:31;98854.41;;;4.36;100.00
21779;BME280;11050;52.222;20.916;2023-02-02T06:33:58;98851.75;;;4.41;100.00
21779;BME280;11050;52.222;20.916;2023-02-02T06:36:26;98846.31;;;4.41;100.00
21779;BME280;11050;52.222;20.916;2023-02-02T06:38:55;98860.00;;;4.46;100.00
21779;BME280;11050;52.222;20.916;2023-02-02T06:41:22;98843.19;;;4.49;100.00
21779;BME280;11050;52.222;20.916;2023-02-02T06:43:48;98860.41;;;4.55;100.00
21779;BME280;11050;52.222;20.916;2023-02-02T06:46:15;98852.44;;;4.48;100.00
21779;BME280;11050;52.222;20.916;2023-02-02T06:48:41;98848.38;;;4.51;100.00
21779;BME280;11050;52.222;20.916;2023-02-02T06:51:07;98850.97;;;4.41;100.00
21779;BME280;11050;52.222;20.916;2023-02-02T06:53:34;98839.19;;;4.35;100.00
21779;BME280;11050;52.222;20.916;2023-02-02T06:56:06;98836.13;;;4.32;100.00
21779;BME280;11050;52.222;20.916;2023-02-02T06:58:33;98833.06;;;4.28;100.00
21779;BME280;11050;52.222;20.916;2023-02-02T07:01:11;98830.63;;;4.27;100.00
21779;BME280;11050;52.222;20.916;2023-02-02T07:03:38;98823.69;;;4.19;100.00
21779;BME280;11050;52.222;20.916;2023-02-02T07:06:19;98830.13;;;4.30;100.00
21779;BME280;11050;52.222;20.916;2023-02-02T07:08:48;98827.41;;;4.30;100.00
21779;BME280;11050;52.222;20.916;2023-02-02T07:11:16;98828.78;;;4.32;100.00
21779;BME280;11050;52.222;20.916;2023-02-02T07:13:44;98841.22;;;4.28;100.00
21779;BME280;11050;52.222;20.916;2023-02-02T07:16:10;98833.00;;;4.23;100.00
21779;BME280;11050;52.222;20.916;2023-02-02T07:18:40;98827.63;;;4.28;100.00
21779;BME280;11050;52.222;20.916;2023-02-02T07:21:20;98831.19;;;4.29;100.00
21779;BME280;11050;52.222;20.916;2023-02-02T07:23:47;98829.09;;;4.36;100.00
21779;BME280;11050;52.222;20.916;2023-02-02T07:26:15;98829.94;;;4.36;100.00
21779;BME280;11050;52.222;20.916;2023-02-02T07:28:42;98830.19;;;4.35;100.00
21779;BME280;11050;52.222;20.916;2023-02-02T07:33:45;98822.63;;;4.37;100.00
21779;BME280;11050;52.222;20.916;2023-02-02T07:36:14;98831.09;;;4.40;100.00
21779;BME280;11050;52.222;20.916;2023-02-02T07:38:44;98830.25;;;4.40;100.00
21779;BME280;11050;52.222;20.916;2023-02-02T07:41:11;98836.84;;;4.44;100.00
21779;BME280;11050;52.222;20.916;2023-02-02T07:43:37;98832.72;;;4.41;100.00
21779;BME280;11050;52.222;20.916;2023-02-02T07:46:06;98833.06;;;4.45;100.00
21779;BME280;11050;52.222;20.916;2023-02-02T07:48:35;98841.78;;;4.47;100.00
21779;BME280;11050;52.222;20.916;2023-02-02T07:51:05;98837.69;;;4.44;100.00
21779;BME280;11050;52.222;20.916;2023-02-02T07:53:32;98840.31;;;4.39;100.00
21779;BME280;11050;52.222;20.916;2023-02-02T07:56:10;98834.81;;;4.34;100.00
21779;BME280;11050;52.222;20.916;2023-02-02T07:58:36;98834.75;;;4.29;100.00
21779;BME280;11050;52.222;20.916;2023-02-02T08:01:05;98840.25;;;4.34;100.00
21779;BME280;11050;52.222;20.916;2023-02-02T08:03:31;98838.03;;;4.31;100.00
21779;BME280;11050;52.222;20.916;2023-02-02T08:05:58;98852.09;;;4.28;100.00
21779;BME280;11050;52.222;20.916;2023-02-02T08:08:25;98850.16;;;4.24;100.00
21779;BME280;11050;52.222;20.916;2023-02-02T08:10:52;98848.25;;;4.24;100.00
21779;BME280;11050;52.222;20.916;2023-02-02T08:13:19;98849.66;;;4.27;100.00
21779;BME280;11050;52.222;20.916;2023-02-02T08:15:45;98838.69;;;4.22;100.00
21779;BME280;11050;52.222;20.916;2023-02-02T08:18:11;98850.22;;;4.29;100.00
21779;BME280;11050;52.222;20.916;2023-02-02T08:20:37;98850.63;;;4.21;100.00
21779;BME280;11050;52.222;20.916;2023-02-02T08:23:02;98844.63;;;4.19;100.00
21779;BME280;11050;52.222;20.916;2023-02-02T08:25:28;98860.94;;;4.19;100.00
21779;BME280;11050;52.222;20.916;2023-02-02T08:27:55;98860.03;;;4.13;100.00
21779;BME280;11050;52.222;20.916;2023-02-02T08:30:26;98855.69;;;4.12;100.00
21779;BME280;11050;52.222;20.916;2023-02-02T08:32:52;98845.28;;;4.09;100.00
21779;BME280;11050;52.222;20.916;2023-02-02T08:35:17;98855.41;;;4.14;100.00
21779;BME280;11050;52.222;20.916;2023-02-02T08:37:47;98860.03;;;4.13;100.00
21779;BME280;11050;52.222;20.916;2023-02-02T08:40:14;98854.44;;;4.03;100.00
21779;BME280;11050;52.222;20.916;2023-02-02T08:42:40;98865.06;;;4.05;100.00
21779;BME280;11050;52.222;20.916;2023-02-02T08:45:06;98858.31;;;4.07;100.00
21779;BME280;11050;52.222;20.916;2023-02-02T08:47:32;98866.69;;;4.06;100.00
21779;BME280;11050;52.222;20.916;2023-02-02T08:49:58;98860.03;;;3.97;100.00
21779;BME280;11050;52.222;20.916;2023-02-02T08:52:23;98880.88;;;4.08;100.00
21779;BME280;11050;52.222;20.916;2023-02-02T08:54:49;98866.22;;;4.09;100.00
21779;BME280;11050;52.222;20.916;2023-02-02T08:57:15;98867.84;;;4.10;100.00
21779;BME280;11050;52.222;20.916;2023-02-02T08:59:41;98875.34;;;4.19;100.00
21779;BME280;11050;52.222;20.916;2023-02-02T09:02:10;98866.72;;;4.22;100.00
21779;BME280;11050;52.222;20.916;2023-02-02T09:04:38;98872.28;;;4.32;100.00
21779;BME280;11050;52.222;20.916;2023-02-02T09:07:05;98873.44;;;4.36;100.00
21779;BME280;11050;52.222;20.916;2023-02-02T09:09:31;98868.91;;;4.42;100.00
21779;BME280;11050;52.222;20.916;2023-02-02T09:11:57;98878.78;;;4.48;100.00
21779;BME280;11050;52.222;20.916;2023-02-02T09:14:23;98875.34;;;4.52;100.00
21779;BME280;11050;52.222;20.916;2023-02-02T09:16:48;98880.59;;;4.59;100.00
21779;BME280;11050;52.222;20.916;2023-02-02T09:19:14;98874.97;;;4.65;100.00
21779;BME280;11050;52.222;20.916;2023-02-02T09:21:40;98884.78;;;4.66;100.00
21779;BME280;11050;52.222;20.916;2023-02-02T09:24:11;98882.94;;;4.72;100.00
21779;BME280;11050;52.222;20.916;2023-02-02T09:26:38;98889.97;;;4.68;100.00
21779;BME280;11050;52.222;20.916;2023-02-02T09:29:07;98885.59;;;4.67;100.00
21779;BME280;11050;52.222;20.916;2023-02-02T09:31:36;98881.47;;;4.64;100.00
21779;BME280;11050;52.222;20.916;2023-02-02T09:34:06;98894.41;;;4.74;100.00
21779;BME280;11050;52.222;20.916;2023-02-02T09:36:33;98884.09;;;4.76;100.00
21779;BME280;11050;52.222;20.916;2023-02-02T09:39:00;98897.28;;;4.84;100.00
21779;BME280;11050;52.222;20.916;2023-02-02T09:50:23;98896.50;;;4.67;100.00
21779;BME280;11050;52.222;20.916;2023-02-02T09:53:50;98913.97;;;4.71;100.00
21779;BME280;11050;52.222;20.916;2023-02-02T09:55:55;98930.44;;;4.64;100.00
21779;BME280;11050;52.222;20.916;2023-02-02T09:58:31;98932.28;;;4.59;100.00
21779;BME280;11050;52.222;20.916;2023-02-02T10:01:16;98925.78;;;4.60;100.00
21779;BME280;11050;52.222;20.916;2023-02-02T10:04:24;98933.34;;;4.58;100.00
21779;BME280;11050;52.222;20.916;2023-02-02T10:06:56;98939.75;;;4.68;100.00
21779;BME280;11050;52.222;20.916;2023-02-02T10:09:39;98942.31;;;4.75;100.00
21779;BME280;11050;52.222;20.916;2023-02-02T10:12:51;98955.81;;;4.87;100.00
21779;BME280;11050;52.222;20.916;2023-02-02T10:15:42;98949.63;;;4.91;100.00
21779;BME280;11050;52.222;20.916;2023-02-02T10:21:37;98960.56;;;4.96;100.00
21779;BME280;11050;52.222;20.916;2023-02-02T10:24:15;98960.88;;;5.00;100.00
21779;BME280;11050;52.222;20.916;2023-02-02T10:26:51;98959.72;;;5.12;100.00
21779;BME280;11050;52.222;20.916;2023-02-02T10:29:32;98967.53;;;5.25;100.00
21779;BME280;11050;52.222;20.916;2023-02-02T10:35:58;98987.09;;;5.22;100.00
21779;BME280;11050;52.222;20.916;2023-02-02T10:41:53;98989.06;;;5.27;100.00
21779;BME280;11050;52.222;20.916;2023-02-02T10:44:53;98995.28;;;5.22;100.00
21779;BME280;11050;52.222;20.916;2023-02-02T10:47:32;98990.81;;;5.16;100.00
21779;BME280;11050;52.222;20.916;2023-02-02T10:50:20;99000.38;;;5.19;100.00
21779;BME280;11050;52.222;20.916;2023-02-02T10:52:58;99004.34;;;5.28;100.00
21779;BME280;11050;52.222;20.916;2023-02-02T10:55:52;99011.72;;;5.32;100.00
21779;BME280;11050;52.222;20.916;2023-02-02T11:01:20;99023.63;;;5.26;100.00
21779;BME280;11050;52.222;20.916;2023-02-02T11:03:47;99037.59;;;5.30;100.00
21779;BME280;11050;52.222;20.916;2023-02-02T11:06:35;99032.91;;;5.09;100.00
21779;BME280;11050;52.222;20.916;2023-02-02T11:09:31;99034.06;;;4.96;100.00
21779;BME280;11050;52.222;20.916;2023-02-02T11:12:04;99053.63;;;4.93;100.00
21779;BME280;11050;52.222;20.916;2023-02-02T11:14:46;99047.84;;;4.90;100.00
21779;BME280;11050;52.222;20.916;2023-02-02T11:17:25;99066.16;;;4.94;100.00
21779;BME280;11050;52.222;20.916;2023-02-02T11:19:51;99060.72;;;4.94;100.00
21779;BME280;11050;52.222;20.916;2023-02-02T11:22:38;99064.19;;;4.90;100.00
21779;BME280;11050;52.222;20.916;2023-02-02T11:25:25;99061.06;;;4.98;100.00
21779;BME280;11050;52.222;20.916;2023-02-02T11:27:52;99060.88;;;5.04;100.00
21779;BME280;11050;52.222;20.916;2023-02-02T11:30:36;99066.25;;;5.16;100.00
21779;BME280;11050;52.222;20.916;2023-02-02T11:33:31;99075.81;;;5.18;100.00
21779;BME280;11050;52.222;20.916;2023-02-02T11:36:04;99054.34;;;5.22;100.00
21779;BME280;11050;52.222;20.916;2023-02-02T11:38:31;99071.16;;;5.35;100.00
21779;BME280;11050;52.222;20.916;2023-02-02T11:41:04;99075.53;;;5.36;100.00
21779;BME280;11050;52.222;20.916;2023-02-02T11:43:38;99081.03;;;5.41;100.00
21779;BME280;11050;52.222;20.916;2023-02-02T11:46:23;99076.25;;;5.48;100.00
21779;BME280;11050;52.222;20.916;2023-02-02T11:49:15;99080.63;;;5.49;100.00
21779;BME280;11050;52.222;20.916;2023-02-02T11:52:05;99088.13;;;5.59;100.00
21779;BME280;11050;52.222;20.916;2023-02-02T11:54:35;99091.66;;;5.59;100.00
21779;BME280;11050;52.222;20.916;2023-02-02T11:57:07;99096.28;;;5.59;100.00
21779;BME280;11050;52.222;20.916;2023-02-02T11:59:39;99102.88;;;5.63;100.00
21779;BME280;11050;52.222;20.916;2023-02-02T12:02:27;99099.16;;;5.69;100.00
21779;BME280;11050;52.222;20.916;2023-02-02T12:07:48;99108.88;;;5.82;100.00
21779;BME280;11050;52.222;20.916;2023-02-02T12:16:04;99125.06;;;5.71;100.00
21779;BME280;11050;52.222;20.916;2023-02-02T12:18:44;99122.78;;;5.63;100.00
21779;BME280;11050;52.222;20.916;2023-02-02T12:24:30;99138.16;;;5.53;100.00
21779;BME280;11050;52.222;20.916;2023-02-02T12:27:16;99144.84;;;5.45;100.00
21779;BME280;11050;52.222;20.916;2023-02-02T12:30:12;99150.31;;;5.45;100.00
21779;BME280;11050;52.222;20.916;2023-02-02T12:35:52;99156.09;;;5.32;100.00
21779;BME280;11050;52.222;20.916;2023-02-02T12:41:35;99164.00;;;5.17;100.00
21779;BME280;11050;52.222;20.916;2023-02-02T12:44:17;99167.13;;;5.09;100.00
21779;BME280;11050;52.222;20.916;2023-02-02T12:55:21;99198.59;;;4.89;100.00
21779;BME280;11050;52.222;20.916;2023-02-02T12:58:35;99210.84;;;4.86;100.00
21779;BME280;11050;52.222;20.916;2023-02-02T13:04:03;99227.16;;;4.86;100.00
21779;BME280;11050;52.222;20.916;2023-02-02T13:09:56;99248.94;;;4.86;100.00
21779;BME280;11050;52.222;20.916;2023-02-02T13:12:25;99252.25;;;4.88;100.00
21779;BME280;11050;52.222;20.916;2023-02-02T13:14:58;99254.03;;;4.82;100.00
21779;BME280;11050;52.222;20.916;2023-02-02T13:17:52;99273.53;;;4.91;100.00
21779;BME280;11050;52.222;20.916;2023-02-02T13:20:35;99273.47;;;5.03;100.00
21779;BME280;11050;52.222;20.916;2023-02-02T13:23:26;99278.59;;;4.99;100.00
21779;BME280;11050;52.222;20.916;2023-02-02T13:26:03;99259.66;;;4.93;100.00
21779;BME280;11050;52.222;20.916;2023-02-02T13:28:51;99265.44;;;4.96;100.00
21779;BME280;11050;52.222;20.916;2023-02-02T13:31:30;99284.69;;;5.06;100.00
21779;BME280;11050;52.222;20.916;2023-02-02T13:34:40;99304.25;;;5.03;100.00
21779;BME280;11050;52.222;20.916;2023-02-02T13:40:32;99312.56;;;5.25;100.00
21779;BME280;11050;52.222;20.916;2023-02-02T13:51:37;99339.69;;;6.26;100.00
21779;BME280;11050;52.222;20.916;2023-02-02T14:02:51;99354.22;;;7.08;100.00
21779;BME280;11050;52.222;20.916;2023-02-02T14:05:37;99354.72;;;6.83;100.00
21779;BME280;11050;52.222;20.916;2023-02-02T14:08:21;99361.53;;;6.64;100.00
21779;BME280;11050;52.222;20.916;2023-02-02T14:13:22;99371.06;;;6.45;100.00
21779;BME280;11050;52.222;20.916;2023-02-02T14:19:04;99375.25;;;5.98;100.00
21779;BME280;11050;52.222;20.916;2023-02-02T14:26:57;99397.78;;;5.93;100.00
21779;BME280;11050;52.222;20.916;2023-02-02T14:31:59;99416.13;;;5.69;100.00
21779;BME280;11050;52.222;20.916;2023-02-02T14:34:42;99423.00;;;5.72;100.00
21779;BME280;11050;52.222;20.916;2023-02-02T14:42:55;99438.91;;;5.63;100.00
21779;BME280;11050;52.222;20.916;2023-02-02T14:45:46;99442.97;;;5.49;100.00
21779;BME280;11050;52.222;20.916;2023-02-02T14:50:53;99450.06;;;5.22;100.00
21779;BME280;11050;52.222;20.916;2023-02-02T14:53:24;99467.34;;;5.16;100.00
21779;BME280;11050;52.222;20.916;2023-02-02T14:56:08;99468.41;;;5.04;100.00
21779;BME280;11050;52.222;20.916;2023-02-02T14:58:42;99475.78;;;5.03;100.00
21779;BME280;11050;52.222;20.916;2023-02-02T15:15:09;99520.03;;;4.87;100.00
21779;BME280;11050;52.222;20.916;2023-02-02T15:20:23;99532.34;;;4.78;100.00
21779;BME280;11050;52.222;20.916;2023-02-02T15:23:06;99547.72;;;4.72;100.00
21779;BME280;11050;52.222;20.916;2023-02-02T15:31:32;99572.19;;;3.90;100.00
21779;BME280;11050;52.222;20.916;2023-02-02T15:36:44;99574.06;;;3.53;100.00
21779;BME280;11050;52.222;20.916;2023-02-02T15:39:37;99599.41;;;3.47;100.00
21779;BME280;11050;52.222;20.916;2023-02-02T15:42:16;99600.13;;;3.43;100.00
21779;BME280;11050;52.222;20.916;2023-02-02T15:45:01;99612.38;;;3.45;100.00